LOT242N EPWA-EPGD
Flight info
| Callsign | LOT242N |
|---|---|
| Flight time | N/A |
| Altitude | 28000 |
| Route | OLILA L621 RILAB DCT OSLOG |
| Aircraft | B738/M-SDE2E3FGHIRWXY/LB1 |
Departure
| Time | 2026-05-05 18:26 |
|---|---|
| Airport | Warsaw Chopin Airport (EPWA) |
Arrival
| Time | N/A |
|---|---|
| Airport | Gdańsk Lech Wałęsa Airport (EPGD) |
| Time | Latitude | Longitude | Altitude | Speed | Heading |
|---|---|---|---|---|---|
| 2026-05-05 18:10 | 52.17028 | 20.96829 | 330 ft | 0 kts | 62° |
| 2026-05-05 18:21 | 52.17030 | 20.96839 | 330 ft | 3 kts | 61° |
| 2026-05-05 18:21 | 52.17044 | 20.96877 | 332 ft | 4 kts | 60° |
| 2026-05-05 18:22 | 52.17046 | 20.96927 | 333 ft | 5 kts | 124° |
| 2026-05-05 18:22 | 52.16996 | 20.96987 | 333 ft | 17 kts | 150° |
| 2026-05-05 18:22 | 52.16900 | 20.97090 | 335 ft | 13 kts | 137° |
| 2026-05-05 18:22 | 52.16835 | 20.97164 | 336 ft | 11 kts | 150° |
| 2026-05-05 18:23 | 52.16745 | 20.97242 | 336 ft | 12 kts | 159° |
| 2026-05-05 18:23 | 52.16678 | 20.97246 | 336 ft | 7 kts | 183° |
| 2026-05-05 18:23 | 52.16619 | 20.97248 | 336 ft | 11 kts | 157° |
| 2026-05-05 18:23 | 52.16563 | 20.97410 | 336 ft | 17 kts | 114° |
| 2026-05-05 18:24 | 52.16519 | 20.97568 | 336 ft | 13 kts | 114° |
| 2026-05-05 18:24 | 52.16480 | 20.97709 | 336 ft | 16 kts | 114° |
| 2026-05-05 18:24 | 52.16412 | 20.97808 | 335 ft | 12 kts | 197° |
| 2026-05-05 18:24 | 52.16331 | 20.97745 | 333 ft | 13 kts | 207° |
| 2026-05-05 18:25 | 52.16313 | 20.97640 | 334 ft | 8 kts | 294° |
| 2026-05-05 18:25 | 52.16323 | 20.97605 | 334 ft | 2 kts | 294° |
| 2026-05-05 18:25 | 52.16324 | 20.97603 | 334 ft | 0 kts | 294° |
| 2026-05-05 18:26 | 52.16409 | 20.97296 | 336 ft | 74 kts | 295° |
| 2026-05-05 18:26 | 52.16750 | 20.96091 | 339 ft | 155 kts | 294° |
| 2026-05-05 18:26 | 52.17208 | 20.94412 | 1075 ft | 166 kts | 293° |
| 2026-05-05 18:27 | 52.17664 | 20.92663 | 1899 ft | 174 kts | 292° |
| 2026-05-05 18:27 | 52.18190 | 20.90912 | 2688 ft | 181 kts | 306° |
| 2026-05-05 18:27 | 52.19123 | 20.89494 | 3505 ft | 188 kts | 329° |
| 2026-05-05 18:27 | 52.20362 | 20.88668 | 3730 ft | 219 kts | 343° |
| 2026-05-05 18:28 | 52.23468 | 20.86042 | 5385 ft | 264 kts | 326° |
| 2026-05-05 18:28 | 52.24980 | 20.84374 | 6503 ft | 272 kts | 326° |
| 2026-05-05 18:28 | 52.26528 | 20.82645 | 7665 ft | 277 kts | 326° |
| 2026-05-05 18:29 | 52.28105 | 20.80878 | 8785 ft | 281 kts | 326° |
| 2026-05-05 18:29 | 52.29723 | 20.79063 | 9872 ft | 286 kts | 326° |
| 2026-05-05 18:29 | 52.31358 | 20.77227 | 10747 ft | 298 kts | 326° |
| 2026-05-05 18:29 | 52.33184 | 20.75175 | 10828 ft | 337 kts | 326° |
| 2026-05-05 18:30 | 52.35102 | 20.73017 | 11989 ft | 338 kts | 326° |
| 2026-05-05 18:30 | 52.37055 | 20.70817 | 12913 ft | 346 kts | 326° |
| 2026-05-05 18:30 | 52.39030 | 20.68590 | 13894 ft | 351 kts | 326° |
| 2026-05-05 18:30 | 52.41044 | 20.66317 | 14838 ft | 356 kts | 326° |
| 2026-05-05 18:31 | 52.43059 | 20.64040 | 15734 ft | 361 kts | 326° |
| 2026-05-05 18:31 | 52.45133 | 20.61693 | 16609 ft | 366 kts | 326° |
| 2026-05-05 18:31 | 52.47230 | 20.59317 | 17455 ft | 371 kts | 326° |
| 2026-05-05 18:31 | 52.49339 | 20.56926 | 18269 ft | 375 kts | 326° |
| 2026-05-05 18:32 | 52.51488 | 20.54485 | 19066 ft | 380 kts | 326° |
| 2026-05-05 18:32 | 52.53653 | 20.52024 | 19838 ft | 384 kts | 326° |
| 2026-05-05 18:32 | 52.55857 | 20.49516 | 20578 ft | 388 kts | 326° |
| 2026-05-05 18:32 | 52.58087 | 20.46975 | 21294 ft | 393 kts | 326° |
| 2026-05-05 18:33 | 52.60308 | 20.44440 | 21979 ft | 397 kts | 326° |
| 2026-05-05 18:33 | 52.62602 | 20.41819 | 22663 ft | 401 kts | 326° |
| 2026-05-05 18:33 | 52.64892 | 20.39200 | 23322 ft | 405 kts | 326° |
| 2026-05-05 18:33 | 52.67188 | 20.36569 | 23954 ft | 408 kts | 326° |
| 2026-05-05 18:34 | 52.69524 | 20.33806 | 24230 ft | 421 kts | 320° |
| 2026-05-05 18:34 | 52.71599 | 20.30410 | 24257 ft | 427 kts | 312° |
| 2026-05-05 18:34 | 52.73575 | 20.26754 | 24242 ft | 427 kts | 311° |
| 2026-05-05 18:34 | 52.75503 | 20.23073 | 24219 ft | 425 kts | 310° |
| 2026-05-05 18:35 | 52.77417 | 20.19388 | 24216 ft | 424 kts | 310° |
| 2026-05-05 18:35 | 52.79330 | 20.15691 | 24221 ft | 424 kts | 310° |
| 2026-05-05 18:35 | 52.81246 | 20.11981 | 24219 ft | 424 kts | 310° |
| 2026-05-05 18:35 | 52.83162 | 20.08263 | 24219 ft | 425 kts | 310° |
| 2026-05-05 18:36 | 52.85054 | 20.04588 | 24219 ft | 425 kts | 310° |
| 2026-05-05 18:36 | 52.86962 | 20.00875 | 24219 ft | 425 kts | 310° |
| 2026-05-05 18:36 | 52.88878 | 19.97141 | 24219 ft | 424 kts | 310° |
| 2026-05-05 18:36 | 52.90789 | 19.93412 | 24219 ft | 424 kts | 310° |
| 2026-05-05 18:37 | 52.92697 | 19.89683 | 24219 ft | 425 kts | 310° |
| 2026-05-05 18:37 | 52.94600 | 19.85957 | 24219 ft | 425 kts | 310° |
| 2026-05-05 18:37 | 52.96489 | 19.82253 | 24219 ft | 425 kts | 310° |
| 2026-05-05 18:37 | 52.98393 | 19.78516 | 24219 ft | 425 kts | 310° |
| 2026-05-05 18:38 | 53.00283 | 19.74800 | 24219 ft | 425 kts | 310° |
| 2026-05-05 18:38 | 53.02204 | 19.71017 | 24219 ft | 425 kts | 310° |
| 2026-05-05 18:38 | 53.04097 | 19.67283 | 24219 ft | 425 kts | 310° |
| 2026-05-05 18:38 | 53.06088 | 19.63711 | 24188 ft | 425 kts | 319° |
| 2026-05-05 18:39 | 53.08374 | 19.60640 | 24245 ft | 425 kts | 322° |
| 2026-05-05 18:39 | 53.10723 | 19.57690 | 24216 ft | 425 kts | 323° |
| 2026-05-05 18:39 | 53.13098 | 19.54757 | 24218 ft | 425 kts | 324° |
| 2026-05-05 18:39 | 53.15473 | 19.51835 | 24196 ft | 421 kts | 324° |
| 2026-05-05 18:40 | 53.17777 | 19.49001 | 23715 ft | 416 kts | 324° |
| 2026-05-05 18:40 | 53.20106 | 19.46131 | 23256 ft | 408 kts | 324° |
| 2026-05-05 18:40 | 53.22343 | 19.43374 | 22809 ft | 401 kts | 324° |
| 2026-05-05 18:40 | 53.24577 | 19.40616 | 22371 ft | 396 kts | 324° |
| 2026-05-05 18:41 | 53.26756 | 19.37921 | 21952 ft | 394 kts | 324° |
| 2026-05-05 18:41 | 53.28949 | 19.35206 | 21532 ft | 394 kts | 324° |
| 2026-05-05 18:41 | 53.31161 | 19.32464 | 21105 ft | 393 kts | 323° |
| 2026-05-05 18:41 | 53.33340 | 19.29761 | 20682 ft | 390 kts | 323° |
| 2026-05-05 18:42 | 53.35479 | 19.27101 | 20264 ft | 387 kts | 323° |
| 2026-05-05 18:42 | 53.37630 | 19.24425 | 19844 ft | 385 kts | 323° |
| 2026-05-05 18:42 | 53.39762 | 19.21768 | 19427 ft | 382 kts | 323° |
| 2026-05-05 18:42 | 53.41878 | 19.19128 | 19015 ft | 379 kts | 323° |
| 2026-05-05 18:43 | 53.43999 | 19.16479 | 18601 ft | 377 kts | 323° |
| 2026-05-05 18:43 | 53.46088 | 19.13866 | 18193 ft | 375 kts | 323° |
| 2026-05-05 18:43 | 53.48158 | 19.11274 | 17788 ft | 373 kts | 323° |
| 2026-05-05 18:43 | 53.50214 | 19.08697 | 17355 ft | 363 kts | 323° |
| 2026-05-05 18:44 | 53.52165 | 19.06247 | 16593 ft | 347 kts | 323° |
| 2026-05-05 18:44 | 53.54058 | 19.03868 | 15826 ft | 333 kts | 323° |
| 2026-05-05 18:44 | 53.55876 | 19.01580 | 15093 ft | 322 kts | 323° |
| 2026-05-05 18:44 | 53.57614 | 18.99391 | 14386 ft | 312 kts | 323° |
| 2026-05-05 18:45 | 53.59220 | 18.97366 | 13728 ft | 304 kts | 323° |
| 2026-05-05 18:45 | 53.60797 | 18.95376 | 13069 ft | 297 kts | 323° |
| 2026-05-05 18:45 | 53.62429 | 18.93315 | 12404 ft | 294 kts | 323° |
| 2026-05-05 18:45 | 53.64045 | 18.91270 | 11753 ft | 292 kts | 323° |
| 2026-05-05 18:46 | 53.65650 | 18.89239 | 11122 ft | 290 kts | 323° |
| 2026-05-05 18:46 | 53.67256 | 18.87204 | 10496 ft | 288 kts | 323° |
| 2026-05-05 18:46 | 53.68834 | 18.85203 | 10218 ft | 279 kts | 323° |
| 2026-05-05 18:46 | 53.70400 | 18.83215 | 10230 ft | 284 kts | 323° |
| 2026-05-05 18:47 | 53.71993 | 18.81191 | 10236 ft | 292 kts | 323° |
| 2026-05-05 18:47 | 53.73612 | 18.79132 | 10102 ft | 292 kts | 323° |
| 2026-05-05 18:47 | 53.75205 | 18.77103 | 10099 ft | 286 kts | 323° |
| 2026-05-05 18:47 | 53.76793 | 18.75079 | 10091 ft | 285 kts | 323° |
| 2026-05-05 18:48 | 53.78366 | 18.73139 | 9922 ft | 279 kts | 330° |
| 2026-05-05 18:48 | 53.80151 | 18.71991 | 9751 ft | 271 kts | 352° |
| 2026-05-05 18:48 | 53.81996 | 18.72191 | 9560 ft | 264 kts | 12° |
| 2026-05-05 18:48 | 53.83770 | 18.72868 | 9413 ft | 256 kts | 13° |
| 2026-05-05 18:49 | 53.85457 | 18.73433 | 9351 ft | 245 kts | 13° |
| 2026-05-05 18:49 | 53.87128 | 18.74082 | 8915 ft | 252 kts | 13° |
| 2026-05-05 18:49 | 53.88862 | 18.74759 | 8506 ft | 257 kts | 13° |
| 2026-05-05 18:49 | 53.90615 | 18.75443 | 8092 ft | 261 kts | 13° |
| 2026-05-05 18:50 | 53.92387 | 18.76136 | 7680 ft | 264 kts | 13° |
| 2026-05-05 18:50 | 53.94163 | 18.76830 | 7240 ft | 261 kts | 13° |
| 2026-05-05 18:50 | 53.95898 | 18.77509 | 6791 ft | 251 kts | 13° |
| 2026-05-05 18:50 | 53.97567 | 18.78163 | 6368 ft | 242 kts | 13° |
| 2026-05-05 18:51 | 53.99149 | 18.78783 | 6165 ft | 226 kts | 13° |
| 2026-05-05 18:51 | 54.00547 | 18.79700 | 6045 ft | 213 kts | 25° |
| 2026-05-05 18:51 | 54.01882 | 18.80779 | 6090 ft | 214 kts | 25° |
| 2026-05-05 18:51 | 54.03239 | 18.81882 | 6096 ft | 217 kts | 25° |
| 2026-05-05 18:52 | 54.04597 | 18.82987 | 6092 ft | 218 kts | 25° |
| 2026-05-05 18:52 | 54.05961 | 18.84097 | 6091 ft | 218 kts | 25° |
| 2026-05-05 18:52 | 54.07335 | 18.85216 | 6091 ft | 217 kts | 25° |
| 2026-05-05 18:52 | 54.08683 | 18.86314 | 6091 ft | 217 kts | 25° |
| 2026-05-05 18:53 | 54.10038 | 18.87419 | 6037 ft | 215 kts | 25° |
| 2026-05-05 18:53 | 54.11408 | 18.88537 | 5759 ft | 216 kts | 25° |
| 2026-05-05 18:53 | 54.12748 | 18.89631 | 5541 ft | 216 kts | 25° |
| 2026-05-05 18:53 | 54.14092 | 18.90728 | 5324 ft | 215 kts | 25° |
| 2026-05-05 18:54 | 54.15453 | 18.91841 | 5099 ft | 214 kts | 25° |
| 2026-05-05 18:54 | 54.16781 | 18.92926 | 4882 ft | 213 kts | 25° |
| 2026-05-05 18:54 | 54.18109 | 18.94013 | 4665 ft | 213 kts | 25° |
| 2026-05-05 18:54 | 54.19437 | 18.95100 | 4449 ft | 212 kts | 25° |
| 2026-05-05 18:55 | 54.20757 | 18.96181 | 4349 ft | 205 kts | 25° |
| 2026-05-05 18:55 | 54.22069 | 18.96931 | 4269 ft | 196 kts | 359° |
| 2026-05-05 18:55 | 54.23328 | 18.96275 | 4125 ft | 192 kts | 327° |
| 2026-05-05 18:55 | 54.24434 | 18.95012 | 4102 ft | 191 kts | 326° |
| 2026-05-05 18:56 | 54.25517 | 18.93753 | 4163 ft | 185 kts | 326° |
| 2026-05-05 18:56 | 54.26389 | 18.92139 | 4117 ft | 189 kts | 295° |
| 2026-05-05 18:56 | 54.26912 | 18.90079 | 4142 ft | 190 kts | 293° |
| 2026-05-05 18:56 | 54.27428 | 18.88025 | 4106 ft | 190 kts | 293° |
| 2026-05-05 18:57 | 54.27952 | 18.85939 | 4099 ft | 189 kts | 293° |
| 2026-05-05 18:57 | 54.28469 | 18.83878 | 4099 ft | 189 kts | 293° |
| 2026-05-05 18:57 | 54.28994 | 18.81785 | 4098 ft | 189 kts | 293° |
| 2026-05-05 18:57 | 54.29512 | 18.79716 | 4101 ft | 188 kts | 293° |
| 2026-05-05 18:58 | 54.29970 | 18.77890 | 4037 ft | 191 kts | 293° |
| 2026-05-05 18:58 | 54.30496 | 18.75784 | 3791 ft | 190 kts | 293° |